Time;durP1;ratioP1;P1;durP2;ratioP2;P2;SDS_P1;SDS_P2;PMS_P1;PMS_P2;Temp;Humidity;BMP_temperature;BMP_pressure;BME280_temperature;BME280_humidity;BME280_pressure;Samples;Min_cycle;Max_cycle;Signal;HPM_P1;HPM_P2
2023/01/04 00:02:01;;;;;;;10.63;9.52;;;;;;;10.16;nan;96002.66;5049875;28;20221;-58
2023/01/04 00:04:29;;;;;;;12.02;9.80;;;;;;;10.25;nan;96004.25;5049572;28;20206;-58
2023/01/04 00:06:56;;;;;;;12.32;9.98;;;;;;;10.22;nan;96008.53;5050085;28;21725;-59
2023/01/04 00:09:23;;;;;;;13.23;8.82;;;;;;;10.30;nan;96010.94;5049417;28;20212;-59
2023/01/04 00:11:49;;;;;;;10.43;9.43;;;;;;;10.27;nan;96005.91;5050874;28;20221;-59
2023/01/04 00:14:17;;;;;;;11.10;9.77;;;;;;;10.31;nan;96009.25;5050011;28;20205;-59
2023/01/04 00:16:44;;;;;;;9.95;9.05;;;;;;;10.25;nan;95996.63;5047266;28;20287;-59
2023/01/04 00:19:12;;;;;;;13.65;10.23;;;;;;;10.37;nan;96012.53;5048486;28;20232;-59
2023/01/04 00:21:40;;;;;;;11.95;10.43;;;;;;;10.35;nan;96013.41;5048406;28;20233;-59
2023/01/04 00:24:07;;;;;;;10.70;9.50;;;;;;;10.37;nan;96009.13;5044149;28;20234;-59
2023/01/04 00:26:35;;;;;;;13.57;9.10;;;;;;;10.37;nan;96011.69;5047674;28;20201;-59
2023/01/04 00:29:04;;;;;;;10.63;9.57;;;;;;;10.33;nan;96007.50;5048282;28;20204;-59
2023/01/04 00:31:31;;;;;;;13.77;10.45;;;;;;;10.41;nan;96014.13;5053434;28;20212;-59
2023/01/04 00:34:00;;;;;;;9.48;8.57;;;;;;;10.36;nan;96020.16;5053226;28;20226;-60
2023/01/04 00:36:27;;;;;;;9.52;8.50;;;;;;;10.39;nan;96022.66;5052064;28;20808;-59
2023/01/04 00:39:06;;;;;;;11.18;9.02;;;;;;;10.30;nan;96013.47;5051542;28;20567;-59
2023/01/04 00:41:34;;;;;;;10.55;9.07;;;;;;;10.20;nan;96011.94;5052946;28;20300;-59
2023/01/04 00:44:03;;;;;;;12.95;9.38;;;;;;;10.13;nan;96008.66;5052777;28;20758;-59
2023/01/04 00:46:30;;;;;;;10.27;9.18;;;;;;;10.18;nan;96006.88;5051997;28;20210;-58
2023/01/04 00:48:57;;;;;;;9.50;8.60;;;;;;;10.27;nan;96012.69;5053014;28;20205;-58
2023/01/04 00:51:23;;;;;;;9.88;8.90;;;;;;;10.28;nan;96016.91;5055021;28;20626;-58
2023/01/04 00:53:50;;;;;;;10.70;8.77;;;;;;;10.20;nan;96010.25;5054456;28;20254;-59
2023/01/04 00:56:18;;;;;;;10.32;9.30;;;;;;;10.15;nan;96011.16;5053218;28;20635;-59
2023/01/04 00:58:45;;;;;;;13.40;8.80;;;;;;;10.22;nan;96021.22;5054260;28;20644;-59
2023/01/04 01:01:12;;;;;;;11.77;8.88;;;;;;;10.13;nan;96018.81;5053837;28;20671;-59
2023/01/04 01:03:38;;;;;;;9.48;8.40;;;;;;;10.08;nan;96020.59;5053853;28;20682;-59
2023/01/04 01:06:07;;;;;;;9.20;8.27;;;;;;;10.18;nan;96026.34;5053162;28;20556;-61
2023/01/04 01:08:34;;;;;;;12.38;8.93;;;;;;;10.13;nan;96034.06;5053798;28;20250;-59
2023/01/04 01:11:04;;;;;;;9.98;8.98;;;;;;;10.12;nan;96036.63;5054304;28;20209;-59
2023/01/04 01:13:33;;;;;;;10.20;9.13;;;;;;;10.17;nan;96030.59;5054043;28;20206;-59
2023/01/04 01:16:03;;;;;;;9.32;8.27;;;;;;;10.26;nan;96039.81;5052514;28;20737;-59
2023/01/04 01:18:30;;;;;;;10.73;9.73;;;;;;;10.20;nan;96017.88;5053819;28;20587;-60
2023/01/04 01:20:57;;;;;;;10.88;9.30;;;;;;;10.16;nan;96039.06;5052876;28;20233;-59
2023/01/04 01:23:24;;;;;;;9.55;8.38;;;;;;;10.17;nan;96043.28;5054138;28;20313;-59
2023/01/04 01:25:50;;;;;;;10.43;9.25;;;;;;;10.10;nan;96043.44;5052703;28;20291;-59
2023/01/04 01:28:17;;;;;;;10.23;9.25;;;;;;;10.07;nan;96036.69;5053142;28;20258;-58
2023/01/04 01:30:45;;;;;;;9.95;9.05;;;;;;;9.99;nan;96038.50;5052660;28;20202;-58
2023/01/04 01:33:12;;;;;;;10.88;9.82;;;;;;;9.98;nan;96039.38;5054448;28;20209;-59
2023/01/04 01:35:39;;;;;;;9.90;9.00;;;;;;;10.01;nan;96036.78;5053194;28;20205;-59
2023/01/04 01:38:06;;;;;;;10.85;9.75;;;;;;;9.95;nan;96041.13;5052283;28;20233;-59
2023/01/04 01:40:32;;;;;;;12.85;9.05;;;;;;;9.97;nan;96037.69;5053157;28;20642;-60
2023/01/04 01:42:59;;;;;;;12.93;9.85;;;;;;;9.86;nan;96009.94;5053546;28;20222;-60
2023/01/04 01:45:32;;;;;;;10.98;9.43;;;;;;;10.00;nan;96030.03;5053101;28;20220;-60
2023/01/04 01:48:07;;;;;;;11.57;9.27;;;;;;;9.90;nan;96036.09;5052973;28;20638;-60
2023/01/04 01:50:39;;;;;;;9.95;8.77;;;;;;;9.86;nan;96030.25;5052018;28;20197;-60
2023/01/04 01:53:08;;;;;;;12.13;10.75;;;;;;;9.65;nan;96022.94;5051831;28;20217;-60
2023/01/04 01:55:37;;;;;;;13.50;10.07;;;;;;;9.68;nan;96022.06;5053174;28;22147;-58
2023/01/04 01:58:07;;;;;;;10.73;9.65;;;;;;;9.72;nan;96019.47;5051946;28;20642;-58
2023/01/04 02:00:34;;;;;;;11.60;10.40;;;;;;;9.72;nan;96016.09;5052672;28;20197;-59
2023/01/04 02:03:12;;;;;;;11.05;9.95;;;;;;;9.74;nan;96012.66;5052307;28;20213;-59
2023/01/04 02:05:39;;;;;;;10.38;9.35;;;;;;;9.70;nan;96012.72;5051779;28;20625;-59
2023/01/04 02:08:07;;;;;;;11.80;9.57;;;;;;;9.62;nan;96009.47;5050900;28;21482;-59
2023/01/04 02:10:34;;;;;;;14.02;10.25;;;;;;;9.43;nan;96004.66;5051785;28;20210;-59
2023/01/04 02:13:06;;;;;;;14.38;10.68;;;;;;;9.37;nan;96016.59;5052554;28;20622;-61
2023/01/04 02:15:44;;;;;;;12.10;10.80;;;;;;;9.37;nan;96019.97;5051419;28;20205;-59
2023/01/04 02:18:19;;;;;;;11.73;10.60;;;;;;;9.37;nan;96019.97;5051942;28;20229;-59
2023/01/04 02:20:50;;;;;;;14.75;11.13;;;;;;;9.33;nan;96013.28;5052551;28;20712;-59
2023/01/04 02:23:53;;;;;;;12.82;10.27;;;;;;;9.37;nan;96019.97;5054069;28;20237;-59
2023/01/04 02:26:58;;;;;;;14.80;10.95;;;;;;;9.33;nan;96012.44;5052241;28;20197;-60
2023/01/04 02:30:12;;;;;;;14.25;11.27;;;;;;;9.38;nan;96015.75;5039152;28;20226;-59
2023/01/04 02:33:06;;;;;;;13.27;11.88;;;;;;;9.47;nan;96010.53;5016643;28;20506;-60
2023/01/04 02:35:41;;;;;;;14.48;10.85;;;;;;;9.48;nan;96013.03;5051391;28;20683;-60
2023/01/04 02:38:19;;;;;;;15.23;10.98;;;;;;;9.49;nan;96004.56;5052871;28;20593;-59
2023/01/04 02:40:53;;;;;;;15.90;12.57;;;;;;;9.48;nan;96005.44;5052611;28;20443;-59
2023/01/04 02:46:17;;;;;;;15.65;12.40;;;;;;;9.41;nan;96011.44;5051413;28;20237;-60
2023/01/04 02:51:32;;;;;;;14.60;11.93;;;;;;;9.39;nan;96009.81;5051377;28;20216;-60
2023/01/04 02:54:02;;;;;;;15.18;13.02;;;;;;;9.45;nan;96007.16;5051353;28;20224;-59
2023/01/04 02:56:38;;;;;;;14.98;12.68;;;;;;;9.34;nan;96012.41;5051376;28;20197;-58
2023/01/04 02:59:40;;;;;;;16.73;12.90;;;;;;;9.35;nan;96006.47;5050948;28;20239;-60
2023/01/04 03:08:08;;;;;;;15.05;11.90;;;;;;;9.17;nan;96006.69;5051497;28;20216;-59
2023/01/04 03:10:41;;;;;;;16.58;13.30;;;;;;;9.13;nan;96007.63;5049797;28;20824;-58
2023/01/04 03:13:14;;;;;;;15.65;12.07;;;;;;;9.14;nan;96004.22;5050585;28;20206;-59
2023/01/04 03:15:46;;;;;;;19.33;11.98;;;;;;;9.07;nan;96000.94;5050164;28;20208;-59
2023/01/04 03:18:19;;;;;;;23.95;13.60;;;;;;;9.00;nan;96001.00;5052074;28;20225;-59
2023/01/04 03:20:48;;;;;;;16.38;12.35;;;;;;;8.99;nan;96012.84;5051375;28;20258;-59
2023/01/04 03:37:18;;;;;;;16.27;12.20;;;;;;;8.94;nan;96013.75;5050716;28;20216;-60
2023/01/04 03:48:33;;;;;;;14.93;13.32;;;;;;;9.04;nan;96021.25;5051072;28;20204;-59
2023/01/04 03:51:07;;;;;;;14.10;12.35;;;;;;;9.02;nan;96024.66;5050155;28;20209;-59
2023/01/04 03:53:41;;;;;;;17.80;12.25;;;;;;;8.98;nan;96023.00;5050402;28;20205;-59
2023/01/04 03:56:10;;;;;;;13.40;12.00;;;;;;;9.15;nan;96011.81;5050733;28;20212;-58
2023/01/04 03:58:37;;;;;;;13.32;11.77;;;;;;;9.10;nan;96011.03;5051197;28;20658;-59
2023/01/04 04:01:05;;;;;;;20.70;12.13;;;;;;;9.20;nan;96016.81;5049102;28;20759;-59
2023/01/04 04:09:03;;;;;;;15.60;11.55;;;;;;;9.43;nan;96019.03;5049381;28;20616;-59
2023/01/04 04:11:32;;;;;;;16.02;12.30;;;;;;;9.46;nan;96014.75;5048207;28;20202;-59
2023/01/04 04:14:00;;;;;;;15.27;11.00;;;;;;;9.57;nan;96023.94;5049998;28;20228;-59
2023/01/04 04:16:27;;;;;;;19.48;12.23;;;;;;;9.72;nan;96027.06;5051005;28;20216;-60
2023/01/04 04:18:54;;;;;;;18.83;11.80;;;;;;;9.68;nan;96024.59;5049760;28;20236;-60
2023/01/04 04:21:21;;;;;;;13.30;11.43;;;;;;;9.73;nan;96026.22;5049355;28;22425;-60
2023/01/04 04:23:48;;;;;;;14.38;11.82;;;;;;;9.73;nan;96028.75;5050547;28;20781;-60
2023/01/04 04:26:17;;;;;;;15.52;12.05;;;;;;;9.70;nan;96022.88;5052140;28;20202;-60
2023/01/04 04:28:44;;;;;;;15.05;11.50;;;;;;;9.69;nan;96033.88;5050083;28;20205;-60
2023/01/04 04:31:11;;;;;;;11.77;10.57;;;;;;;9.75;nan;96028.72;5050679;28;20600;-60
2023/01/04 04:33:38;;;;;;;15.48;11.10;;;;;;;9.64;nan;96028.06;5050148;28;20225;-59
2023/01/04 04:36:06;;;;;;;14.55;12.07;;;;;;;9.70;nan;96033.03;5050051;28;20208;-58
2023/01/04 04:38:33;;;;;;;17.77;10.98;;;;;;;9.68;nan;96032.22;5051702;28;20228;-58
2023/01/04 04:43:45;;;;;;;16.38;12.07;;;;;;;9.65;nan;96043.25;5050070;28;20886;-58
2023/01/04 04:46:12;;;;;;;12.70;10.80;;;;;;;9.62;nan;96047.56;5050599;28;20206;-59
2023/01/04 04:48:39;;;;;;;16.45;12.05;;;;;;;9.82;nan;96053.19;5051398;28;20251;-59
2023/01/04 04:51:06;;;;;;;14.85;11.85;;;;;;;9.76;nan;96043.09;5049789;28;21969;-59
2023/01/04 04:53:32;;;;;;;17.67;11.52;;;;;;;9.77;nan;96047.31;5050031;28;20205;-58
2023/01/04 04:55:59;;;;;;;14.85;11.07;;;;;;;9.72;nan;96046.53;5050976;28;20215;-59
2023/01/04 04:58:26;;;;;;;18.15;12.15;;;;;;;9.73;nan;96043.16;5050109;28;20205;-63
2023/01/04 05:00:54;;;;;;;13.32;10.75;;;;;;;9.76;nan;96053.25;5048815;28;20302;-59
2023/01/04 05:03:21;;;;;;;16.70;11.73;;;;;;;9.69;nan;96051.66;5048739;28;21183;-59
2023/01/04 05:05:47;;;;;;;15.15;12.73;;;;;;;9.67;nan;96053.38;5050007;28;21623;-59
2023/01/04 05:08:14;;;;;;;17.48;11.80;;;;;;;9.51;nan;96030.75;5050306;28;20202;-59
2023/01/04 05:10:41;;;;;;;14.23;11.68;;;;;;;9.68;nan;96060.13;5048705;28;20314;-59
2023/01/04 05:13:09;;;;;;;15.68;12.38;;;;;;;9.68;nan;96058.44;5050234;28;20274;-57
2023/01/04 05:15:38;;;;;;;17.35;12.27;;;;;;;9.67;nan;96063.53;5050171;28;20217;-58
2023/01/04 05:18:07;;;;;;;18.20;12.18;;;;;;;9.74;nan;96055.81;5054742;28;20205;-59
2023/01/04 05:20:34;;;;;;;19.40;14.25;;;;;;;9.72;nan;96057.53;5053332;28;20610;-59
2023/01/04 05:23:01;;;;;;;18.92;13.02;;;;;;;9.63;nan;96057.69;5055621;28;21099;-59
2023/01/04 05:25:28;;;;;;;18.77;12.43;;;;;;;9.65;nan;96066.09;5054665;28;20280;-60
2023/01/04 05:27:54;;;;;;;19.50;12.13;;;;;;;9.70;nan;96066.03;5054733;28;21206;-60
2023/01/04 05:33:07;;;;;;;18.70;13.02;;;;;;;9.66;nan;96059.31;5053962;28;20307;-60
2023/01/04 05:35:34;;;;;;;15.90;12.40;;;;;;;9.71;nan;96062.63;5054627;28;20232;-62
2023/01/04 05:38:01;;;;;;;18.10;12.77;;;;;;;9.70;nan;96064.31;5054111;28;20209;-60
2023/01/04 05:40:28;;;;;;;13.82;12.32;;;;;;;9.67;nan;96073.69;5053043;28;20381;-61
2023/01/04 05:42:55;;;;;;;18.10;12.98;;;;;;;9.71;nan;96070.25;5054236;28;20198;-59
2023/01/04 05:45:23;;;;;;;15.70;12.02;;;;;;;9.71;nan;96072.78;5052980;28;20220;-59
2023/01/04 05:47:50;;;;;;;18.30;11.90;;;;;;;9.66;nan;96077.09;5053511;28;20202;-61
2023/01/04 05:50:20;;;;;;;15.30;12.45;;;;;;;9.62;nan;96081.38;5053482;28;20194;-60
2023/01/04 05:52:47;;;;;;;21.58;14.35;;;;;;;9.70;nan;96079.56;5053586;28;20205;-60
2023/01/04 05:55:14;;;;;;;17.02;12.98;;;;;;;9.86;nan;96085.28;5053354;28;20198;-60
2023/01/04 05:57:41;;;;;;;14.13;11.75;;;;;;;9.81;nan;96069.28;5053267;28;20954;-58
2023/01/04 06:00:09;;;;;;;17.85;13.05;;;;;;;9.97;nan;96080.03;5052968;28;20229;-58
2023/01/04 06:02:36;;;;;;;23.80;17.48;;;;;;;9.86;nan;96077.66;5052142;28;20508;-59
2023/01/04 06:05:04;;;;;;;21.90;13.52;;;;;;;9.84;nan;96071.75;5054041;28;20605;-60
2023/01/04 06:07:32;;;;;;;17.15;13.55;;;;;;;9.78;nan;96080.31;5054016;28;20206;-59
2023/01/04 06:09:59;;;;;;;16.40;13.32;;;;;;;9.77;nan;96078.63;5052974;28;20201;-58
2023/01/04 06:12:26;;;;;;;16.42;11.95;;;;;;;9.76;nan;96081.19;5052665;28;20779;-60
2023/01/04 06:14:53;;;;;;;14.40;12.23;;;;;;;9.84;nan;96087.00;5052901;28;20678;-60
2023/01/04 06:17:20;;;;;;;19.02;13.35;;;;;;;9.86;nan;96085.28;5053199;28;20642;-60
2023/01/04 06:19:46;;;;;;;13.27;10.98;;;;;;;9.81;nan;96098.03;5052968;28;20221;-59
2023/01/04 06:22:13;;;;;;;15.00;12.48;;;;;;;9.93;nan;96091.91;5053126;28;20240;-61
2023/01/04 06:24:41;;;;;;;26.23;15.95;;;;;;;9.98;nan;96100.31;5051802;28;20214;-59
2023/01/04 06:27:08;;;;;;;17.35;12.48;;;;;;;10.07;nan;96104.44;5053533;28;20694;-60
2023/01/04 06:29:35;;;;;;;20.92;12.43;;;;;;;10.04;nan;96097.69;5053288;28;20205;-60
2023/01/04 06:32:02;;;;;;;18.23;12.27;;;;;;;10.08;nan;96106.97;5053045;28;20687;-61
2023/01/04 06:34:28;;;;;;;18.63;12.63;;;;;;;10.17;nan;96096.63;5053389;28;20225;-59
2023/01/04 06:36:55;;;;;;;19.83;14.00;;;;;;;10.27;nan;96107.53;5052310;28;20262;-60
2023/01/04 06:39:22;;;;;;;15.35;12.88;;;;;;;10.20;nan;96108.47;5052796;28;20549;-60
2023/01/04 06:41:50;;;;;;;23.95;13.23;;;;;;;10.34;nan;96111.66;5053230;28;20844;-60
2023/01/04 06:44:17;;;;;;;16.00;12.10;;;;;;;10.28;nan;96113.44;5052013;28;20210;-59
2023/01/04 06:46:43;;;;;;;15.82;12.70;;;;;;;10.28;nan;96113.44;5053242;28;20736;-60
2023/01/04 06:49:10;;;;;;;16.42;12.43;;;;;;;10.39;nan;96111.59;5051631;28;20202;-60
2023/01/04 06:51:37;;;;;;;23.35;11.88;;;;;;;10.40;nan;96108.16;5053480;28;20210;-58
2023/01/04 06:54:03;;;;;;;13.77;11.65;;;;;;;10.41;nan;96114.94;5052230;28;20258;-60
2023/01/04 06:56:31;;;;;;;29.73;16.65;;;;;;;10.42;nan;96108.97;5053168;28;20266;-60
2023/01/04 06:58:59;;;;;;;21.95;13.82;;;;;;;10.49;nan;96105.47;5051335;28;20322;-60
2023/01/04 07:01:26;;;;;;;16.05;11.90;;;;;;;10.58;nan;96102.81;5053140;28;20201;-58
2023/01/04 07:03:52;;;;;;;19.38;12.50;;;;;;;10.53;nan;96105.41;5052095;28;20207;-59
2023/01/04 07:06:19;;;;;;;16.88;12.55;;;;;;;10.62;nan;96114.59;5052093;28;20209;-62
2023/01/04 07:08:46;;;;;;;14.65;11.95;;;;;;;10.67;nan;96110.25;5051462;28;20209;-61
2023/01/04 07:11:13;;;;;;;12.40;10.93;;;;;;;10.83;nan;96119.31;5053274;28;20198;-59
2023/01/04 07:13:39;;;;;;;14.52;12.27;;;;;;;10.82;nan;96117.63;5051892;28;20216;-59
2023/01/04 07:16:08;;;;;;;17.48;11.88;;;;;;;10.81;nan;96126.13;5051677;28;20225;-60
2023/01/04 07:18:34;;;;;;;17.42;12.20;;;;;;;10.72;nan;96126.25;5051869;28;20675;-61
2023/01/04 07:21:01;;;;;;;15.60;11.55;;;;;;;10.68;nan;96134.81;5051887;28;20285;-60
2023/01/04 07:23:28;;;;;;;17.60;12.63;;;;;;;10.64;nan;96134.91;5052536;28;20287;-61
2023/01/04 07:25:55;;;;;;;15.68;11.32;;;;;;;10.72;nan;96135.59;5050833;28;20310;-58
2023/01/04 07:31:08;;;;;;;14.15;11.77;;;;;;;10.78;nan;96131.25;5051209;28;20293;-60
2023/01/04 07:33:35;;;;;;;13.10;11.70;;;;;;;10.72;nan;96136.44;5052342;28;21119;-59
2023/01/04 07:36:04;;;;;;;16.85;11.23;;;;;;;10.78;nan;96141.44;5051153;28;21424;-58
2023/01/04 07:38:30;;;;;;;15.05;11.75;;;;;;;10.76;nan;96138.06;5051775;28;20206;-60
2023/01/04 07:40:57;;;;;;;14.32;11.95;;;;;;;10.76;nan;96137.22;5051168;28;20747;-60
2023/01/04 07:43:24;;;;;;;18.05;13.30;;;;;;;10.83;nan;96133.72;5052174;28;20206;-60
2023/01/04 07:45:50;;;;;;;14.52;11.40;;;;;;;10.70;nan;96138.16;5052151;28;22043;-61
2023/01/04 07:48:18;;;;;;;13.60;11.30;;;;;;;10.74;nan;96133.88;5051772;28;20202;-59
2023/01/04 07:50:45;;;;;;;18.52;12.82;;;;;;;10.73;nan;96138.13;5051730;28;20261;-60
2023/01/04 07:53:12;;;;;;;16.48;12.80;;;;;;;10.78;nan;96141.44;5051834;28;20255;-60
2023/01/04 07:55:39;;;;;;;15.32;11.73;;;;;;;10.71;nan;96139.00;5050766;28;20216;-59
2023/01/04 07:58:06;;;;;;;14.15;11.93;;;;;;;10.66;nan;96145.88;5051508;28;20634;-59
2023/01/04 08:00:33;;;;;;;14.35;11.93;;;;;;;10.68;nan;96150.06;5050891;28;20236;-59
2023/01/04 08:02:59;;;;;;;21.20;13.75;;;;;;;10.76;nan;96140.63;5051432;28;20228;-59
2023/01/04 08:05:27;;;;;;;13.40;10.90;;;;;;;10.95;nan;96142.81;5051713;28;20198;-59
2023/01/04 08:07:54;;;;;;;15.80;12.77;;;;;;;11.00;nan;96146.13;5051024;28;20209;-58
2023/01/04 08:10:21;;;;;;;14.98;12.45;;;;;;;11.07;nan;96142.63;5049951;28;20201;-60
2023/01/04 08:12:48;;;;;;;16.88;11.10;;;;;;;11.15;nan;96150.94;5051989;28;20201;-59
2023/01/04 08:15:15;;;;;;;16.55;11.98;;;;;;;11.17;nan;96157.66;5051811;28;20216;-60
2023/01/04 08:17:42;;;;;;;15.88;11.35;;;;;;;11.19;nan;96152.56;5051570;28;20259;-61
2023/01/04 08:20:09;;;;;;;14.55;11.52;;;;;;;11.25;nan;96147.34;5049585;28;20230;-60
2023/01/04 08:22:37;;;;;;;19.75;11.23;;;;;;;11.35;nan;96151.41;5051944;28;20725;-60
2023/01/04 08:25:05;;;;;;;14.77;11.38;;;;;;;11.34;nan;96143.81;5050719;28;20306;-59
2023/01/04 08:27:32;;;;;;;13.13;11.73;;;;;;;11.38;nan;96147.97;5051509;28;20292;-59
2023/01/04 08:29:59;;;;;;;21.10;12.77;;;;;;;11.38;nan;96159.00;5050083;28;20201;-59
2023/01/04 08:32:26;;;;;;;16.13;12.02;;;;;;;11.38;nan;96153.06;5051099;28;20209;-60
2023/01/04 08:34:53;;;;;;;25.88;14.45;;;;;;;11.41;nan;96152.97;5050642;28;20237;-58
2023/01/04 08:37:20;;;;;;;20.67;13.68;;;;;;;11.52;nan;96136.66;5051531;28;20298;-60
2023/01/04 08:39:48;;;;;;;17.90;12.68;;;;;;;11.68;nan;96149.88;5051602;28;20193;-59
2023/01/04 08:42:15;;;;;;;19.35;13.07;;;;;;;11.81;nan;96153.06;5050424;28;20213;-59
2023/01/04 08:44:42;;;;;;;19.02;12.27;;;;;;;11.69;nan;96146.47;5051346;28;20213;-60
2023/01/04 08:47:08;;;;;;;16.42;12.20;;;;;;;11.49;nan;96146.88;5051873;28;20202;-60
2023/01/04 08:49:35;;;;;;;15.50;12.35;;;;;;;11.42;nan;96157.22;5051240;28;20743;-60
2023/01/04 08:52:02;;;;;;;12.98;11.10;;;;;;;11.40;nan;96156.41;5053736;28;20209;-61
2023/01/04 08:54:28;;;;;;;19.65;12.13;;;;;;;11.36;nan;96155.66;5054012;28;20201;-59
2023/01/04 08:56:57;;;;;;;16.90;12.40;;;;;;;11.37;nan;96159.88;5056014;28;20210;-59
2023/01/04 08:59:23;;;;;;;16.23;13.38;;;;;;;11.16;nan;96153.44;5055090;28;22199;-59
2023/01/04 09:01:50;;;;;;;16.92;10.95;;;;;;;11.14;nan;96149.25;5054123;28;20275;-60
2023/01/04 09:04:17;;;;;;;19.02;13.27;;;;;;;10.93;nan;96154.72;5055335;28;20206;-59
2023/01/04 09:06:43;;;;;;;14.68;11.50;;;;;;;10.99;nan;96154.63;5054934;28;21097;-62
2023/01/04 09:09:10;;;;;;;18.15;11.95;;;;;;;11.05;nan;96154.53;5053931;28;20231;-60
2023/01/04 09:11:38;;;;;;;17.63;12.85;;;;;;;10.99;nan;96149.53;5054976;28;20202;-60
2023/01/04 09:14:07;;;;;;;13.27;11.52;;;;;;;10.94;nan;96161.50;5053701;28;20217;-60
2023/01/04 09:16:34;;;;;;;16.30;11.65;;;;;;;11.02;nan;96150.34;5052327;28;20199;-59
2023/01/04 09:19:01;;;;;;;15.25;12.30;;;;;;;10.94;nan;96146.22;5051346;28;20212;-60
2023/01/04 09:21:28;;;;;;;14.13;10.80;;;;;;;11.00;nan;96148.69;5053569;28;20242;-60
2023/01/04 09:23:56;;;;;;;10.98;9.80;;;;;;;10.97;nan;96136.00;5054325;28;20197;-63
2023/01/04 09:26:23;;;;;;;11.70;10.13;;;;;;;10.97;nan;96148.72;5051456;28;20889;-58
2023/01/04 09:28:52;;;;;;;13.40;9.15;;;;;;;10.94;nan;96141.16;5053666;28;20255;-58
2023/01/04 09:31:23;;;;;;;10.77;9.57;;;;;;;10.98;nan;96137.69;5053018;28;20208;-61
2023/01/04 09:33:50;;;;;;;10.43;9.32;;;;;;;10.99;nan;96147.00;5053436;28;20628;-59
2023/01/04 09:36:18;;;;;;;12.50;9.60;;;;;;;10.86;nan;96133.69;5052701;28;20214;-59
2023/01/04 09:38:45;;;;;;;9.82;8.93;;;;;;;10.93;nan;96147.09;5054384;28;20209;-60
2023/01/04 09:41:24;;;;;;;11.40;9.77;;;;;;;10.82;nan;96147.31;5053949;28;20225;-61
2023/01/04 09:43:53;;;;;;;14.65;9.43;;;;;;;10.68;nan;96119.56;5053175;28;20258;-60
2023/01/04 09:46:29;;;;;;;11.13;9.57;;;;;;;10.80;nan;96139.69;5053938;28;20216;-60
2023/01/04 09:49:09;;;;;;;12.18;9.48;;;;;;;10.84;nan;96138.78;5052903;28;20520;-60
2023/01/04 09:51:41;;;;;;;18.30;10.05;;;;;;;10.84;nan;96132.88;5053170;28;20205;-61
2023/01/04 09:54:15;;;;;;;12.75;10.80;;;;;;;10.92;nan;96128.47;5053119;28;20206;-59
2023/01/04 09:56:48;;;;;;;14.20;9.70;;;;;;;11.08;nan;96131.59;5053179;28;20205;-60
2023/01/04 09:59:17;;;;;;;12.25;9.63;;;;;;;11.13;nan;96132.34;5054099;28;20223;-59
2023/01/04 10:01:49;;;;;;;13.40;9.43;;;;;;;11.11;nan;96126.44;5053492;28;20228;-59
2023/01/04 10:04:23;;;;;;;14.40;10.30;;;;;;;11.17;nan;96128.84;5052316;28;20201;-60
2023/01/04 10:06:51;;;;;;;12.43;9.88;;;;;;;11.13;nan;96129.78;5053408;28;20201;-61
2023/01/04 10:09:18;;;;;;;10.10;9.10;;;;;;;11.07;nan;96127.34;5053020;28;20205;-59
2023/01/04 10:12:00;;;;;;;14.48;10.80;;;;;;;11.05;nan;96129.09;5053335;28;20683;-60
2023/01/04 10:14:40;;;;;;;11.13;9.77;;;;;;;11.07;nan;96132.44;5053041;28;20218;-59
2023/01/04 10:17:26;;;;;;;14.20;9.95;;;;;;;11.20;nan;96137.25;5053842;28;20213;-59
2023/01/04 10:20:21;;;;;;;11.85;10.20;;;;;;;11.27;nan;96122.72;5053201;28;20563;-60
2023/01/04 10:23:00;;;;;;;11.70;9.52;;;;;;;11.45;nan;96126.59;5020399;28;20240;-60
2023/01/04 10:25:34;;;;;;;12.07;9.57;;;;;;;11.45;nan;96119.81;5048953;28;20597;-60
2023/01/04 10:28:16;;;;;;;11.38;9.73;;;;;;;11.44;nan;96123.22;5049929;28;20592;-59
2023/01/04 10:30:52;;;;;;;11.98;10.77;;;;;;;11.37;nan;96124.22;5052477;28;20519;-60
2023/01/04 10:33:26;;;;;;;13.20;10.05;;;;;;;11.37;nan;96126.78;5051634;28;20634;-59
2023/01/04 10:35:53;;;;;;;12.10;9.70;;;;;;;11.36;nan;96135.28;5052586;28;20247;-59
2023/01/04 10:38:25;;;;;;;10.70;9.60;;;;;;;11.31;nan;96129.44;5053138;28;20209;-58
2023/01/04 10:40:52;;;;;;;16.83;10.70;;;;;;;11.16;nan;96130.53;5052370;28;21172;-60
2023/01/04 10:43:30;;;;;;;21.25;11.25;;;;;;;11.12;nan;96125.56;5053602;28;20281;-60
2023/01/04 10:46:02;;;;;;;11.32;10.02;;;;;;;11.01;nan;96124.91;5051563;28;20459;-60
2023/01/04 10:48:39;;;;;;;14.77;10.45;;;;;;;10.84;nan;96135.41;5053307;28;20210;-60
2023/01/04 10:51:06;;;;;;;10.90;9.77;;;;;;;10.83;nan;96124.38;5053430;28;20334;-60
2023/01/04 10:53:40;;;;;;;11.43;10.20;;;;;;;10.98;nan;96127.50;5053299;28;20206;-59
2023/01/04 10:56:15;;;;;;;12.15;9.88;;;;;;;10.86;nan;96120.97;5051577;28;20301;-60
2023/01/04 10:58:47;;;;;;;19.10;10.88;;;;;;;11.05;nan;96122.28;5051644;28;20208;-63
2023/01/04 11:01:19;;;;;;;15.57;11.30;;;;;;;11.15;nan;96115.31;5052736;28;20680;-60
2023/01/04 11:03:53;;;;;;;13.75;9.27;;;;;;;11.23;nan;96110.91;5052186;28;20206;-60
2023/01/04 11:06:23;;;;;;;12.38;9.73;;;;;;;11.32;nan;96115.84;5051071;28;20212;-61
2023/01/04 11:08:57;;;;;;;10.73;9.63;;;;;;;11.37;nan;96110.66;5050013;28;20603;-59
2023/01/04 11:11:28;;;;;;;11.38;8.45;;;;;;;11.33;nan;96109.88;5050051;28;20708;-59
2023/01/04 11:13:54;;;;;;;11.32;8.90;;;;;;;11.39;nan;96108.91;5049258;28;20209;-59
2023/01/04 11:16:21;;;;;;;9.57;8.52;;;;;;;11.57;nan;96104.31;5049739;28;20202;-59
2023/01/04 11:18:51;;;;;;;11.35;9.15;;;;;;;11.55;nan;96106.03;5051366;28;20521;-59
2023/01/04 11:21:23;;;;;;;10.65;9.45;;;;;;;11.74;nan;96100.56;5052485;28;20241;-60
2023/01/04 11:23:49;;;;;;;10.27;9.23;;;;;;;11.91;nan;96093.41;5052799;28;20210;-60
2023/01/04 11:26:20;;;;;;;12.57;9.75;;;;;;;12.05;nan;96093.09;5051570;28;20209;-59
2023/01/04 11:28:52;;;;;;;12.30;9.10;;;;;;;12.16;nan;96081.78;5051897;28;20201;-60
2023/01/04 11:31:26;;;;;;;10.20;9.20;;;;;;;12.15;nan;96080.09;5051858;28;21508;-59
2023/01/04 11:33:56;;;;;;;12.52;10.00;;;;;;;12.03;nan;96082.94;5051902;28;20225;-59
2023/01/04 11:36:42;;;;;;;10.43;9.13;;;;;;;12.01;nan;96079.59;5049789;28;21817;-59
2023/01/04 11:39:19;;;;;;;10.75;9.65;;;;;;;11.83;nan;96080.00;5051247;28;20201;-59
2023/01/04 11:41:55;;;;;;;10.40;9.35;;;;;;;11.72;nan;96075.13;5049638;28;20874;-59
2023/01/04 11:44:23;;;;;;;9.23;8.32;;;;;;;11.63;nan;96077.03;5051779;28;20206;-59
2023/01/04 11:47:06;;;;;;;11.50;9.13;;;;;;;11.60;nan;96072.84;5051686;28;20194;-60
2023/01/04 11:49:36;;;;;;;11.38;9.10;;;;;;;11.48;nan;96071.38;5050429;28;20193;-59
2023/01/04 11:52:03;;;;;;;11.95;9.85;;;;;;;11.26;nan;96062.53;5051272;28;20202;-60
2023/01/04 11:54:30;;;;;;;15.00;8.85;;;;;;;11.21;nan;96070.25;5049827;28;20217;-60
2023/01/04 11:57:00;;;;;;;15.07;9.68;;;;;;;11.28;nan;96068.41;5050918;28;20201;-59
2023/01/04 11:59:27;;;;;;;10.40;9.38;;;;;;;11.20;nan;96065.19;5051130;28;20210;-59
2023/01/04 12:02:18;;;;;;;9.07;8.13;;;;;;;11.08;nan;96062.91;5050648;28;20233;-58
2023/01/04 12:04:47;;;;;;;10.55;9.35;;;;;;;11.22;nan;96055.81;5051372;28;20274;-59
2023/01/04 12:07:25;;;;;;;14.30;9.10;;;;;;;11.45;nan;96058.72;5050719;28;20198;-59
2023/01/04 12:09:52;;;;;;;21.42;9.02;;;;;;;11.69;nan;96052.25;5050314;28;20201;-60
2023/01/04 12:12:19;;;;;;;9.65;8.65;;;;;;;11.87;nan;96051.91;5050797;28;20293;-60
2023/01/04 12:14:48;;;;;;;11.57;9.25;;;;;;;11.79;nan;96017.28;5051215;28;20218;-59
2023/01/04 12:17:21;;;;;;;12.18;9.40;;;;;;;12.11;nan;96047.94;5051028;28;20200;-59
2023/01/04 12:19:53;;;;;;;13.70;9.82;;;;;;;12.27;nan;96056.88;5050714;28;20478;-61
2023/01/04 12:22:24;;;;;;;11.82;9.50;;;;;;;12.34;nan;96049.09;5051512;28;20225;-59
2023/01/04 12:24:53;;;;;;;14.70;9.07;;;;;;;12.27;nan;96049.25;5050207;28;20713;-58
2023/01/04 12:27:20;;;;;;;11.88;9.02;;;;;;;12.20;nan;96050.25;5053614;28;20220;-61
2023/01/04 12:29:56;;;;;;;11.95;9.90;;;;;;;12.20;nan;96050.25;5052594;28;20201;-59
2023/01/04 12:32:44;;;;;;;10.90;9.65;;;;;;;12.15;nan;96052.06;5054583;28;20196;-59
2023/01/04 12:35:44;;;;;;;10.45;9.35;;;;;;;12.05;nan;96055.72;5053750;28;20235;-59
2023/01/04 12:38:12;;;;;;;9.60;8.60;;;;;;;11.84;nan;96046.88;5040031;28;20596;-60
2023/01/04 12:40:55;;;;;;;11.15;9.00;;;;;;;11.76;nan;96051.28;5054064;28;20212;-59